South Glastonbury, Connecticut
Current Conditions -  °F | °C
As of 4:53 AM on Saturday 25 Oct 2014 (Local Time) from KHFD Reporting Station
Clear Clear  
Wind Chill: 43°   Ceiling: Unl
Heat Index: 43°   Visibility: 10mi
Dew Point: 41°   Wind: 3mph
Humidity: 93%   Direction: 160°SSE
Pressure: 29.81"   Gusts: NA
Location:  41.67°N, 72.6°W
Report Text: KHFD 250853Z AUTO 16003KT 10SM CLR 06/05 A2981 RMK AO2 SLP093 T00610050 50003
Loading
Personal Weather Stations






























Interactive Weather Map
Tropical Storm Tracking
New forecast layout! Learn more

10-Day Weather Forecast

Advertisements
Track Severe Weather on mobile